^^
Saratoga-Weather Station Historical Data
Daily Summary for October 18, 2020 Units:  Both    English   Metric
Daily Weekly Monthly Yearly Custom
  High: Low: Average:
Temperature: 45.3 °F /  7.4 °C 40.5 °F /  4.7 °C 42.4 °F /  5.8 °C
Dew Point: 42.1 °F /  5.6 °C 38.8 °F /  3.8 °C 40.5 °F /  4.7 °C
Humidity: 95% 88% 92%
Wind Speed: 0.9mph /  1.4km/h - 0mph /  0km/h
Wind Gust: 1mph /  1.6km/h - -
Wind- - West
Pressure: 30.2 in /  1021.7 hPa 30.2 in /  1021.0 hPa -
Precipitation: 0 in /  0.0 mm    
Historical Graphs
 
 
Tabular Data for October 18, 2020
Time Temperature Dew Point Pressure Wind Wind Speed Wind Gust Humidity Rainfall Rate (Hourly) solar
00:03 45.3 °F /  7.4 °C 41.9 °F /  5.5 °C 30.2in /  1021.0hPa Calm     88% 0in /  0.0mm 0 W/m2
00:08 45.1 °F /  7.3 °C 42.1 °F /  5.6 °C 30.2in /  1021.0hPa Calm   1mph /  1.6km/h 89% 0in /  0.0mm 0 W/m2
00:13 45 °F /  7.2 °C 41.9 °F /  5.5 °C 30.2in /  1021.0hPa Calm     89% 0in /  0.0mm 0 W/m2
00:19 44.8 °F /  7.1 °C 41.7 °F /  5.4 °C 30.2in /  1021.0hPa Calm   1mph /  1.6km/h 89% 0in /  0.0mm 0 W/m2
00:24 44.6 °F /  7 °C 41.5 °F /  5.3 °C 30.2in /  1021.0hPa West 0.9mph /  1.4km/h 1mph /  1.6km/h 89% 0in /  0.0mm 0 W/m2
00:29 44.6 °F /  7 °C 41.5 °F /  5.3 °C 30.2in /  1021.0hPa Calm     89% 0in /  0.0mm 0 W/m2
00:34 44.4 °F /  6.9 °C 41.4 °F /  5.2 °C 30.2in /  1021.0hPa Calm     89% 0in /  0.0mm 0 W/m2
00:39 44.4 °F /  6.9 °C 41.7 °F /  5.4 °C 30.2in /  1021.0hPa Calm     90% 0in /  0.0mm 0 W/m2
00:44 44.2 °F /  6.8 °C 41.5 °F /  5.3 °C 30.2in /  1021.0hPa Calm     90% 0in /  0.0mm 0 W/m2
00:49 44.2 °F /  6.8 °C 41.5 °F /  5.3 °C 30.2in /  1021.0hPa Calm     90% 0in /  0.0mm 0 W/m2
00:54 44.2 °F /  6.8 °C 41.5 °F /  5.3 °C 30.2in /  1021.0hPa Calm     90% 0in /  0.0mm 0 W/m2
00:59 44.2 °F /  6.8 °C 41.5 °F /  5.3 °C 30.2in /  1021.0hPa Calm     90% 0in /  0.0mm 0 W/m2
01:04 44.1 °F /  6.7 °C 41.5 °F /  5.3 °C 30.2in /  1021.0hPa Calm     91% 0in /  0.0mm 0 W/m2
01:09 44.1 °F /  6.7 °C 41.5 °F /  5.3 °C 30.2in /  1021.0hPa Calm     91% 0in /  0.0mm 0 W/m2
01:14 44.1 °F /  6.7 °C 41.5 °F /  5.3 °C 30.2in /  1021.0hPa Calm     91% 0in /  0.0mm 0 W/m2
01:19 43.9 °F /  6.6 °C 41.4 °F /  5.2 °C 30.2in /  1021.0hPa Calm     91% 0in /  0.0mm 0 W/m2
01:24 43.7 °F /  6.5 °C 41.2 °F /  5.1 °C 30.2in /  1021.0hPa Calm     91% 0in /  0.0mm 0 W/m2
01:29 43.5 °F /  6.4 °C 41 °F /  5 °C 30.2in /  1021.0hPa Calm     91% 0in /  0.0mm 0 W/m2
01:34 43.5 °F /  6.4 °C 41 °F /  5 °C 30.2in /  1021.0hPa Calm     91% 0in /  0.0mm 0 W/m2
01:39 43.3 °F /  6.3 °C 40.8 °F /  4.9 °C 30.2in /  1021.0hPa Calm     91% 0in /  0.0mm 0 W/m2
01:44 43.3 °F /  6.3 °C 40.8 °F /  4.9 °C 30.2in /  1021.0hPa Calm     91% 0in /  0.0mm 0 W/m2
01:49 43.2 °F /  6.2 °C 40.6 °F /  4.8 °C 30.2in /  1021.0hPa Calm     91% 0in /  0.0mm 0 W/m2
01:54 43 °F /  6.1 °C 40.5 °F /  4.7 °C 30.2in /  1021.0hPa Calm     91% 0in /  0.0mm 0 W/m2
01:59 43 °F /  6.1 °C 40.8 °F /  4.9 °C 30.2in /  1021.0hPa Calm     92% 0in /  0.0mm 0 W/m2
02:04 42.8 °F /  6 °C 40.6 °F /  4.8 °C 30.2in /  1021.0hPa Calm     92% 0in /  0.0mm 0 W/m2
02:09 42.6 °F /  5.9 °C 40.5 °F /  4.7 °C 30.2in /  1021.0hPa Calm     92% 0in /  0.0mm 0 W/m2
02:14 42.4 °F /  5.8 °C 40.3 °F /  4.6 °C 30.2in /  1021.3hPa Calm     92% 0in /  0.0mm 0 W/m2
02:19 42.3 °F /  5.7 °C 40.1 °F /  4.5 °C 30.2in /  1021.3hPa Calm     92% 0in /  0.0mm 0 W/m2
02:24 42.3 °F /  5.7 °C 40.5 °F /  4.7 °C 30.2in /  1021.3hPa Calm     93% 0in /  0.0mm 0 W/m2
02:29 42.3 °F /  5.7 °C 40.5 °F /  4.7 °C 30.2in /  1021.3hPa Calm     93% 0in /  0.0mm 0 W/m2
02:34 42.3 °F /  5.7 °C 40.5 °F /  4.7 °C 30.2in /  1021.3hPa Calm     93% 0in /  0.0mm 0 W/m2
02:39 42.3 °F /  5.7 °C 40.5 °F /  4.7 °C 30.2in /  1021.3hPa Calm     93% 0in /  0.0mm 0 W/m2
02:44 42.1 °F /  5.6 °C 40.3 °F /  4.6 °C 30.2in /  1021.3hPa Calm     93% 0in /  0.0mm 0 W/m2
02:49 42.1 °F /  5.6 °C 40.3 °F /  4.6 °C 30.2in /  1021.3hPa Calm     93% 0in /  0.0mm 0 W/m2
02:54 42.1 °F /  5.6 °C 40.3 °F /  4.6 °C 30.2in /  1021.3hPa Calm     93% 0in /  0.0mm 0 W/m2
02:59 42.1 °F /  5.6 °C 40.3 °F /  4.6 °C 30.2in /  1021.3hPa Calm     93% 0in /  0.0mm 0 W/m2
03:04 42.1 °F /  5.6 °C 40.3 °F /  4.6 °C 30.2in /  1021.3hPa Calm     93% 0in /  0.0mm 0 W/m2
03:09 41.9 °F /  5.5 °C 40.1 °F /  4.5 °C 30.2in /  1021.3hPa Calm     93% 0in /  0.0mm 0 W/m2
03:14 41.7 °F /  5.4 °C 39.9 °F /  4.4 °C 30.2in /  1021.3hPa Calm     93% 0in /  0.0mm 0 W/m2
03:19 41.7 °F /  5.4 °C 39.9 °F /  4.4 °C 30.2in /  1021.3hPa Calm     93% 0in /  0.0mm 0 W/m2
03:24 41.5 °F /  5.3 °C 39.7 °F /  4.3 °C 30.2in /  1021.3hPa Calm     93% 0in /  0.0mm 0 W/m2
03:29 41.4 °F /  5.2 °C 39.6 °F /  4.2 °C 30.2in /  1021.3hPa Calm     93% 0in /  0.0mm 0 W/m2
03:34 41.4 °F /  5.2 °C 39.6 °F /  4.2 °C 30.2in /  1021.3hPa Calm     93% 0in /  0.0mm 0 W/m2
03:39 41.2 °F /  5.1 °C 39.4 °F /  4.1 °C 30.2in /  1021.3hPa Calm     93% 0in /  0.0mm 0 W/m2
03:44 41 °F /  5 °C 39.4 °F /  4.1 °C 30.2in /  1021.3hPa Calm     94% 0in /  0.0mm 0 W/m2
03:49 40.8 °F /  4.9 °C 39.2 °F /  4 °C 30.2in /  1021.3hPa Calm     94% 0in /  0.0mm 0 W/m2
03:55 40.8 °F /  4.9 °C 39.2 °F /  4 °C 30.2in /  1021.7hPa Calm     94% 0in /  0.0mm 0 W/m2
04:00 40.6 °F /  4.8 °C 39 °F /  3.9 °C 30.2in /  1021.7hPa Calm     94% 0in /  0.0mm 0 W/m2
04:05 40.6 °F /  4.8 °C 39 °F /  3.9 °C 30.2in /  1021.7hPa Calm     94% 0in /  0.0mm 0 W/m2
04:10 40.5 °F /  4.7 °C 38.8 °F /  3.8 °C 30.2in /  1021.7hPa Calm     94% 0in /  0.0mm 0 W/m2
04:15 40.6 °F /  4.8 °C 39 °F /  3.9 °C 30.2in /  1021.7hPa Calm     94% 0in /  0.0mm 0 W/m2
04:20 40.6 °F /  4.8 °C 39 °F /  3.9 °C 30.2in /  1021.7hPa Calm     94% 0in /  0.0mm 0 W/m2
04:25 40.6 °F /  4.8 °C 39 °F /  3.9 °C 30.2in /  1021.7hPa Calm     94% 0in /  0.0mm 0 W/m2
04:30 40.6 °F /  4.8 °C 39 °F /  3.9 °C 30.2in /  1021.7hPa Calm     94% 0in /  0.0mm 0 W/m2
04:35 40.8 °F /  4.9 °C 39.6 °F /  4.2 °C 30.2in /  1021.7hPa Calm     95% 0in /  0.0mm 0 W/m2
04:40 41 °F /  5 °C 39.7 °F /  4.3 °C 30.2in /  1021.7hPa Calm     95% 0in /  0.0mm 0 W/m2
04:45 41 °F /  5 °C 39.7 °F /  4.3 °C 30.2in /  1021.7hPa Calm     95% 0in /  0.0mm 0 W/m2
04:50 41.2 °F /  5.1 °C 39.9 °F /  4.4 °C 30.2in /  1021.7hPa Calm     95% 0in /  0.0mm 0 W/m2
04:55 41 °F /  5 °C 39.7 °F /  4.3 °C 30.2in /  1021.7hPa Calm     95% 0in /  0.0mm 0 W/m2
05:00 40.8 °F /  4.9 °C 39.6 °F /  4.2 °C 30.2in /  1021.7hPa Calm     95% 0in /  0.0mm 0 W/m2
05:05 40.8 °F /  4.9 °C 39.6 °F /  4.2 °C 30.2in /  1021.7hPa Calm     95% 0in /  0.0mm 0 W/m2
Juneau County Weather
Compliments of Weather Underground - 2 mb